LFOT/TUF METAR and TAF weather

Enter ICAO airport designator
Station Type Date Time Source
LFOT METAR 2024/04/23 05:00 UTC NOAA

LFOT 230500Z AUTO 33004KT CAVOK 01/M01 Q1021 NOSIG


Station Type Date Time Source
LFOT Decoded METAR 2024/04/23 05:00 UTC NOAA

Tours, France (LFOT) 47-27N 000-43E 112M
Apr 23, 2024 - 01:00 AM EDT / 2024.04.23 0500 UTC
Wind: from the NNW (330 degrees) at 5 MPH (4 KT):0
Visibility: greater than 7 mile(s):0
Temperature: 33 F (1 C)
Windchill: 28 F (-2 C):1
Dew Point: 30 F (-1 C)
Relative Humidity: 86%
Pressure (altimeter): 30.15 in. Hg (1021 hPa)
ob: LFOT 230500Z AUTO 33004KT CAVOK 01/M01 Q1021 NOSIG
cycle: 5

Station Type Date Time Source
LFOT TAF 2024/04/23 06:00 UTC NOAA